Evanston Uinta County Burns Field
KEVW : now visible

Airfield :











YOU CAN JOIN US ON...

 
LOGIN :

Register | Disclaimer

   EN    FR    IT 

 









Legend :    VFR   Marginal VFR   IFR   Intensive IFR   Very Intensive IFR
Visi :
Ceiling :
>= 8 km
>= 3000ft
5 to 8 km
1000 to 3000 ft
1500m to 5 km
500 to 1000 ft
800 to 1500m
200 to 500 ft
< 800m
< 200 ft
Symbols :   Thunderstorms  Fog  Heavy snow  Heavy precipitations  Wind > 20 kt






- Airport Elevation : 7143 ft


KEVW - Evanston Uinta County Burns Field

CURRENT METAR :
  • 110953Z AUTO 06003KT 10SM CLR 14/M03 A3040 RMK AO2 SLP191 T01441028 $

EXPIRED METARs :
  • 110853Z AUTO 06005KT 10SM CLR 14/M01 A3039 RMK AO2 SLP192 T01391006 58001 $
  • 110753Z AUTO 11004KT 10SM CLR 16/M02 A3040 RMK AO2 SLP190 T01561017 $

TAF KEVW
Valid from the 11 at 06:00 until the 12 at 06:00 UTC


110529Z 1106/1206 17006KT P6SM SCT200
FM111800 25012G22KT P6SM SCT100 BKN200
FM120200 29009KT P6SM FEW200
KZLC FIR / North America



MET'MAP, your aeronautical weather chart ! - Copyright ORBIFLY December 2007 - Disclaimer

ORBIFLY MET'MAP TEAM :

Programming & Development : Alexandra Zaïnal
Concept & original design : Baudouin d'Aumeries
Assistance for programming : Marc-Olivier Méhu
Technical & hardware support : Manuel Goepfert

Contact : metmap@orbifly.com




SOURCES & CREDITS :

   NOAA       Earth
Advisory